Time;durP1;ratioP1;P1;durP2;ratioP2;P2;SDS_P1;SDS_P2;PMS_P1;PMS_P2;Temp;Humidity;BMP_temperature;BMP_pressure;BME280_temperature;BME280_humidity;BME280_pressure;Samples;Min_cycle;Max_cycle;Signal;HPM_P1;HPM_P2
2023/02/13 00:02:21;;;;;;;13.18;2.88;;;19.90;39.40;;;;;;5090431;28;20544;-64
2023/02/13 00:04:48;;;;;;;12.48;2.83;;;19.80;39.50;;;;;;5090445;28;20157;-66
2023/02/13 00:07:14;;;;;;;15.23;2.75;;;19.80;39.80;;;;;;5090505;28;20143;-63
2023/02/13 00:09:41;;;;;;;10.25;2.55;;;19.50;40.40;;;;;;5089827;28;20058;-64
2023/02/13 00:12:08;;;;;;;14.00;2.72;;;19.40;40.90;;;;;;5090395;28;20067;-63
2023/02/13 00:14:37;;;;;;;9.57;2.30;;;19.30;41.00;;;;;;5088171;28;20080;-64
2023/02/13 00:17:04;;;;;;;7.32;1.60;;;19.20;40.90;;;;;;5087559;28;20537;-63
2023/02/13 00:19:30;;;;;;;6.75;1.80;;;18.90;40.70;;;;;;5088037;28;20448;-63
2023/02/13 00:21:57;;;;;;;12.32;2.83;;;18.70;41.20;;;;;;5091617;28;20094;-69
2023/02/13 00:24:23;;;;;;;22.75;10.88;;;18.70;41.40;;;;;;5092235;28;20081;-62
2023/02/13 00:26:50;;;;;;;21.48;8.63;;;18.60;41.50;;;;;;5092058;28;20052;-65
2023/02/13 00:29:16;;;;;;;26.67;9.05;;;18.60;41.70;;;;;;5090926;28;20129;-62
2023/02/13 00:31:43;;;;;;;20.50;9.80;;;18.60;42.00;;;;;;5090505;28;20153;-61
2023/02/13 00:34:09;;;;;;;8.10;3.30;;;18.50;41.90;;;;;;5095721;28;20066;-66
2023/02/13 00:36:35;;;;;;;7.93;3.13;;;18.50;42.00;;;;;;5091395;28;20063;-64
2023/02/13 00:39:02;;;;;;;11.50;1.95;;;18.50;42.10;;;;;;5091148;28;20067;-67
2023/02/13 00:41:29;;;;;;;8.27;3.80;;;18.40;42.00;;;;;;5088827;28;20071;-63
2023/02/13 00:43:55;;;;;;;9.90;3.10;;;18.40;42.60;;;;;;5090413;28;20170;-60
2023/02/13 00:46:21;;;;;;;14.07;4.28;;;18.50;42.00;;;;;;5089480;28;20128;-59
2023/02/13 00:48:48;;;;;;;8.55;2.45;;;18.40;41.90;;;;;;5089440;28;20426;-61
2023/02/13 00:51:15;;;;;;;10.98;2.83;;;18.40;41.90;;;;;;5090160;28;20827;-62
2023/02/13 00:53:41;;;;;;;12.93;2.83;;;18.30;41.70;;;;;;5090439;28;20060;-63
2023/02/13 00:56:08;;;;;;;6.10;2.10;;;18.10;41.80;;;;;;5098624;28;20116;-63
2023/02/13 00:58:34;;;;;;;12.75;2.45;;;18.10;42.10;;;;;;5088378;28;20049;-54
2023/02/13 01:01:01;;;;;;;9.98;2.25;;;18.10;42.00;;;;;;5089994;28;20082;-54
2023/02/13 01:03:27;;;;;;;20.48;9.02;;;18.10;41.90;;;;;;5091157;28;20101;-57
2023/02/13 01:05:56;;;;;;;17.58;7.40;;;18.10;41.70;;;;;;5090094;28;20074;-58
2023/02/13 01:08:23;;;;;;;10.40;4.00;;;18.00;41.30;;;;;;5089426;28;20525;-58
2023/02/13 01:10:49;;;;;;;9.57;3.03;;;18.00;41.40;;;;;;5088834;28;20400;-58
2023/02/13 01:13:17;;;;;;;9.10;2.78;;;17.90;41.40;;;;;;5090440;28;20059;-58
2023/02/13 01:15:44;;;;;;;19.15;8.27;;;17.80;40.90;;;;;;5090347;28;20064;-59
2023/02/13 01:18:18;;;;;;;8.60;4.03;;;17.80;41.30;;;;;;5088185;28;20483;-59
2023/02/13 01:20:45;;;;;;;13.85;4.68;;;17.70;41.70;;;;;;5089521;28;20079;-57
2023/02/13 01:23:12;;;;;;;14.57;4.00;;;17.70;41.20;;;;;;5089088;28;20089;-59
2023/02/13 01:25:41;;;;;;;6.63;3.55;;;17.60;41.30;;;;;;5090555;28;20082;-57
2023/02/13 01:28:08;;;;;;;10.50;3.50;;;17.50;41.40;;;;;;5091001;28;20115;-56
2023/02/13 01:30:35;;;;;;;8.95;3.25;;;17.40;41.30;;;;;;5089611;28;20059;-59
2023/02/13 01:33:01;;;;;;;11.27;3.63;;;17.40;41.50;;;;;;5088324;28;20070;-54
2023/02/13 01:35:28;;;;;;;18.23;5.03;;;17.30;41.60;;;;;;5090388;28;20114;-60
2023/02/13 01:37:54;;;;;;;14.70;4.88;;;17.30;42.00;;;;;;5090006;28;20436;-59
2023/02/13 01:40:21;;;;;;;14.40;3.72;;;17.20;41.80;;;;;;5089593;28;20073;-60
2023/02/13 01:42:47;;;;;;;13.63;3.78;;;17.20;42.00;;;;;;5086619;28;20499;-55
2023/02/13 01:45:19;;;;;;;12.68;3.63;;;17.10;41.90;;;;;;5093239;28;20081;-57
2023/02/13 01:47:57;;;;;;;11.15;3.38;;;17.10;41.80;;;;;;5093606;28;20056;-55
2023/02/13 01:50:41;;;;;;;15.20;3.67;;;17.10;41.60;;;;;;5089423;28;20071;-61
2023/02/13 01:53:19;;;;;;;15.50;3.17;;;17.00;41.70;;;;;;5089542;28;20062;-58
2023/02/13 01:55:59;;;;;;;18.33;4.00;;;16.90;42.10;;;;;;5089858;28;20061;-57
2023/02/13 01:58:31;;;;;;;11.25;4.10;;;16.80;42.00;;;;;;5090289;28;20114;-56
2023/02/13 02:00:58;;;;;;;12.63;4.20;;;16.80;42.00;;;;;;5086431;28;20127;-57
2023/02/13 02:03:32;;;;;;;16.02;6.15;;;16.70;42.60;;;;;;5088793;28;20081;-59
2023/02/13 02:06:00;;;;;;;31.23;13.88;;;16.70;42.70;;;;;;5091516;28;20085;-58
2023/02/13 02:08:27;;;;;;;34.63;16.77;;;16.30;49.40;;;;;;5088613;28;20062;-56
2023/02/13 02:10:57;;;;;;;33.63;14.88;;;16.70;49.90;;;;;;5087566;28;20039;-58
2023/02/13 02:13:25;;;;;;;30.45;14.65;;;16.40;42.50;;;;;;5087788;28;20071;-61
2023/02/13 02:15:52;;;;;;;24.90;8.82;;;16.40;50.40;;;;;;5086402;28;20112;-56
2023/02/13 02:18:23;;;;;;;26.40;8.95;;;16.50;53.80;;;;;;5087161;28;20073;-60
2023/02/13 02:21:08;;;;;;;17.30;7.82;;;15.60;56.10;;;;;;5088744;28;20483;-58
2023/02/13 02:24:11;;;;;;;15.60;4.82;;;16.40;41.90;;;;;;5089209;28;20430;-59
2023/02/13 02:26:38;;;;;;;12.93;3.92;;;16.20;45.00;;;;;;5085768;28;20130;-56
2023/02/13 02:29:06;;;;;;;;;;;16.30;41.80;;;;;;5088247;28;20393;-58
2023/02/13 02:31:57;;;;;;;13.57;5.75;;;16.20;50.80;;;;;;5088183;28;19943;-57
2023/02/13 02:34:32;;;;;;;10.45;4.18;;;16.10;42.60;;;;;;5086973;28;20116;-59
2023/02/13 02:37:31;;;;;;;12.02;3.90;;;16.20;43.30;;;;;;5086689;28;20137;-58
2023/02/13 02:40:24;;;;;;;21.60;4.43;;;16.10;43.40;;;;;;5086199;28;20086;-58
2023/02/13 02:42:59;;;;;;;14.70;3.65;;;16.10;43.50;;;;;;5085162;28;20067;-59
2023/02/13 02:45:54;;;;;;;14.05;3.83;;;16.20;43.50;;;;;;5086196;28;20093;-62
2023/02/13 02:51:23;;;;;;;10.35;3.30;;;16.20;44.60;;;;;;5087129;28;20102;-62
2023/02/13 02:53:58;;;;;;;15.90;3.03;;;16.10;45.50;;;;;;5087900;28;20411;-60
2023/02/13 02:56:39;;;;;;;10.20;2.95;;;16.10;46.10;;;;;;5087836;28;20087;-61
2023/02/13 03:07:37;;;;;;;23.50;8.60;;;16.00;47.60;;;;;;5081096;28;20163;-58
2023/02/13 03:13:20;;;;;;;33.92;6.10;;;15.90;49.00;;;;;;5087665;28;20126;-55
2023/02/13 03:24:58;;;;;;;18.13;6.13;;;15.80;51.00;;;;;;5088662;28;20154;-58
2023/02/13 03:30:44;;;;;;;11.50;3.60;;;15.70;51.50;;;;;;5087787;28;20351;-56
2023/02/13 03:33:21;;;;;;;14.00;3.55;;;15.70;51.40;;;;;;5050172;28;20167;-58
2023/02/13 03:38:41;;;;;;;10.88;4.30;;;15.60;51.60;;;;;;5053889;28;20079;-59
2023/02/13 03:41:20;;;;;;;14.02;3.05;;;15.60;51.70;;;;;;5051514;28;20211;-59
2023/02/13 03:44:02;;;;;;;16.00;4.22;;;15.50;51.60;;;;;;5052771;28;20095;-59
2023/02/13 03:46:34;;;;;;;14.75;3.78;;;15.40;51.70;;;;;;5050643;28;20077;-58
2023/02/13 03:52:16;;;;;;;14.98;4.05;;;15.40;51.60;;;;;;5048477;28;20115;-59
2023/02/13 04:00:20;;;;;;;29.83;11.80;;;15.40;51.70;;;;;;5050556;28;20089;-60
2023/02/13 04:03:00;;;;;;;23.20;4.28;;;15.30;51.70;;;;;;5047249;28;20147;-60
2023/02/13 04:05:31;;;;;;;15.98;4.18;;;15.20;51.60;;;;;;5047673;28;20192;-56
2023/02/13 04:07:57;;;;;;;19.27;4.28;;;15.10;51.60;;;;;;5044295;28;20176;-59
2023/02/13 04:10:25;;;;;;;;;;;15.10;51.80;;;;;;5075214;28;20473;-57
2023/02/13 04:13:17;;;;;;;20.10;4.78;;;15.10;51.80;;;;;;5085359;28;20305;-61
2023/02/13 04:15:58;;;;;;;22.08;4.10;;;15.10;51.80;;;;;;5086072;28;20080;-56
2023/02/13 04:18:31;;;;;;;20.30;4.32;;;15.10;52.00;;;;;;5086913;28;20116;-55
2023/02/13 04:21:05;;;;;;;26.02;6.05;;;15.10;52.20;;;;;;5087461;28;20484;-59
2023/02/13 04:23:31;;;;;;;24.00;7.15;;;15.00;52.20;;;;;;5086697;28;20067;-58
2023/02/13 04:26:05;;;;;;;17.85;4.80;;;14.90;52.30;;;;;;5090774;28;20134;-60
2023/02/13 04:28:31;;;;;;;18.45;3.88;;;15.00;52.40;;;;;;5090965;28;20077;-56
2023/02/13 04:30:58;;;;;;;21.58;4.68;;;14.90;52.20;;;;;;5090000;28;20075;-60
2023/02/13 04:33:24;;;;;;;;;;;14.90;52.10;;;;;;5091970;28;20071;-58
2023/02/13 04:35:50;;;;;;;15.00;4.00;;;14.90;52.20;;;;;;5091137;28;20003;-58
2023/02/13 04:38:17;;;;;;;25.33;4.10;;;14.90;52.20;;;;;;5090237;28;20535;-58
2023/02/13 04:40:43;;;;;;;;;;;14.90;52.30;;;;;;5090597;28;20083;-58
2023/02/13 04:43:09;;;;;;;16.90;6.10;;;14.80;52.20;;;;;;5091451;28;19949;-55
2023/02/13 04:45:35;;;;;;;;;;;14.80;52.50;;;;;;5097542;28;20106;-60
2023/02/13 04:48:02;;;;;;;11.20;3.60;;;14.80;52.50;;;;;;5090526;28;19956;-62
2023/02/13 04:50:28;;;;;;;15.88;4.28;;;14.80;52.60;;;;;;5090895;28;20061;-58
2023/02/13 04:52:55;;;;;;;;;;;14.70;52.80;;;;;;5090421;28;20084;-59
2023/02/13 04:55:22;;;;;;;14.70;5.30;;;14.20;79.10;;;;;;5089837;28;20022;-60
2023/02/13 04:57:51;;;;;;;22.17;5.82;;;14.60;52.70;;;;;;5090520;28;20103;-62
2023/02/13 05:00:18;;;;;;;25.58;7.50;;;14.60;52.80;;;;;;5091437;28;20438;-60
2023/02/13 05:02:45;;;;;;;26.30;7.07;;;14.60;52.90;;;;;;5090269;28;20168;-58
2023/02/13 05:05:11;;;;;;;;;;;14.60;53.20;;;;;;5088594;28;20104;-64
2023/02/13 05:07:37;;;;;;;14.38;4.38;;;14.50;52.80;;;;;;5090774;28;20456;-63
2023/02/13 05:10:04;;;;;;;;;;;14.40;52.80;;;;;;5090705;28;20128;-57
2023/02/13 05:12:30;;;;;;;14.88;3.72;;;14.40;52.60;;;;;;5090916;28;20339;-65
2023/02/13 05:14:56;;;;;;;;;;;14.40;53.00;;;;;;5088784;28;20085;-60
2023/02/13 05:17:22;;;;;;;19.25;3.55;;;14.40;53.20;;;;;;5090613;28;20092;-62
2023/02/13 05:19:48;;;;;;;;;;;14.40;53.30;;;;;;5090417;28;20563;-56
2023/02/13 05:24:59;;;;;;;19.55;3.85;;;14.40;53.70;;;;;;5089458;28;20121;-60
2023/02/13 05:27:26;;;;;;;;;;;14.40;53.40;;;;;;5089875;28;20054;-62
2023/02/13 05:29:52;;;;;;;21.98;4.75;;;14.40;53.60;;;;;;5089249;28;19951;-62
2023/02/13 05:32:18;;;;;;;;;;;14.30;54.30;;;;;;5093865;28;20099;-61
2023/02/13 05:34:44;;;;;;;18.52;4.60;;;14.20;54.30;;;;;;5089839;28;20327;-54
2023/02/13 05:37:11;;;;;;;18.85;5.57;;;14.10;54.70;;;;;;5090025;28;20083;-62
2023/02/13 05:39:37;;;;;;;;;;;14.00;54.20;;;;;;5089260;28;20073;-62
2023/02/13 05:42:03;;;;;;;15.02;5.03;;;13.80;54.30;;;;;;5089843;28;19995;-64
2023/02/13 05:44:30;;;;;;;20.63;4.45;;;13.70;54.80;;;;;;5090485;28;20165;-63
2023/02/13 05:46:57;;;;;;;16.02;3.47;;;13.70;55.00;;;;;;5088506;28;20063;-61
2023/02/13 05:49:23;;;;;;;12.85;3.53;;;13.60;55.70;;;;;;5088953;28;20534;-58
2023/02/13 05:51:51;;;;;;;;;;;13.60;55.90;;;;;;5088362;28;20079;-59
2023/02/13 05:54:17;;;;;;;17.25;3.25;;;13.70;56.00;;;;;;5090268;28;19955;-59
2023/02/13 05:56:44;;;;;;;13.85;3.53;;;13.70;55.80;;;;;;5089284;28;20122;-58
2023/02/13 05:59:11;;;;;;;12.68;3.58;;;13.70;56.10;;;;;;5101853;28;20081;-62
2023/02/13 06:01:38;;;;;;;15.88;4.05;;;13.50;65.10;;;;;;5089357;28;20074;-60
2023/02/13 06:04:04;;;;;;;;;;;13.50;55.90;;;;;;5090352;28;20193;-58
2023/02/13 06:06:30;;;;;;;13.68;3.17;;;13.40;56.40;;;;;;5088294;28;20651;-60
2023/02/13 06:08:56;;;;;;;16.63;3.47;;;13.30;56.70;;;;;;5089376;28;20556;-58
2023/02/13 06:11:23;;;;;;;;;;;13.40;56.90;;;;;;5090591;28;20109;-59
2023/02/13 06:13:49;;;;;;;9.90;3.20;;;13.20;56.80;;;;;;5088655;28;19961;-62
2023/02/13 06:16:15;;;;;;;;;;;13.30;57.50;;;;;;5088273;28;20091;-60
2023/02/13 06:18:41;;;;;;;17.15;3.53;;;13.20;57.30;;;;;;5089169;28;19959;-63
2023/02/13 06:21:08;;;;;;;;;;;13.10;57.70;;;;;;5088992;28;20090;-54
2023/02/13 06:23:34;;;;;;;7.35;2.70;;;13.10;57.50;;;;;;5089086;28;19960;-57
2023/02/13 06:26:06;;;;;;;13.93;2.90;;;13.20;57.70;;;;;;5087972;28;20091;-58
2023/02/13 06:28:33;;;;;;;11.75;2.83;;;13.10;57.50;;;;;;5092318;28;20090;-52
2023/02/13 06:31:00;;;;;;;7.72;1.95;;;13.10;57.80;;;;;;5088247;28;20076;-59
2023/02/13 06:33:26;;;;;;;9.50;4.32;;;13.30;69.70;;;;;;5088501;28;20524;-59
2023/02/13 06:35:53;;;;;;;;;;;13.00;58.20;;;;;;5088240;28;20066;-56
2023/02/13 06:38:20;;;;;;;9.60;3.20;;;13.10;58.00;;;;;;5088830;28;19964;-58
2023/02/13 06:40:48;;;;;;;11.20;2.38;;;12.90;58.00;;;;;;5088722;28;20065;-60
2023/02/13 06:43:15;;;;;;;8.45;2.15;;;12.90;58.30;;;;;;5088295;28;20432;-54
2023/02/13 06:45:41;;;;;;;6.40;2.33;;;13.00;58.30;;;;;;5087733;28;20586;-62
2023/02/13 06:48:08;;;;;;;6.65;3.20;;;13.00;58.30;;;;;;5089217;28;20558;-59
2023/02/13 06:50:34;;;;;;;24.23;3.42;;;12.80;58.70;;;;;;5087434;28;20162;-65
2023/02/13 06:53:01;;;;;;;12.88;2.55;;;12.80;59.20;;;;;;5086448;28;20167;-64
2023/02/13 06:55:27;;;;;;;;;;;12.90;59.20;;;;;;5088489;28;20142;-63
2023/02/13 06:57:53;;;;;;;10.73;2.58;;;12.50;81.50;;;;;;5088179;28;19951;-64
2023/02/13 07:00:20;;;;;;;41.88;4.65;;;12.90;58.90;;;;;;5085773;28;20082;-63
2023/02/13 07:02:47;;;;;;;39.15;3.95;;;12.80;59.00;;;;;;5085029;28;20529;-63
2023/02/13 07:05:16;;;;;;;39.80;4.72;;;12.90;59.30;;;;;;5085054;28;20110;-61
2023/02/13 07:07:42;;;;;;;8.27;2.25;;;12.90;59.10;;;;;;5083402;28;20094;-64
2023/02/13 07:10:10;;;;;;;;;;;12.90;59.00;;;;;;5088795;28;20098;-61
2023/02/13 07:12:36;;;;;;;13.77;2.80;;;12.90;59.50;;;;;;5080749;28;19961;-61
2023/02/13 07:15:04;;;;;;;14.38;3.40;;;12.80;59.50;;;;;;5080870;28;20137;-64
2023/02/13 07:17:31;;;;;;;25.48;3.55;;;13.20;84.50;;;;;;5080306;28;20486;-61
2023/02/13 07:19:57;;;;;;;24.65;3.78;;;12.80;59.40;;;;;;5083914;28;20478;-61
2023/02/13 07:22:24;;;;;;;29.17;4.38;;;12.70;95.40;;;;;;5080859;28;20090;-63
2023/02/13 07:24:50;;;;;;;;;;;12.80;59.00;;;;;;5084905;28;20509;-63
2023/02/13 07:27:16;;;;;;;26.13;4.43;;;12.80;58.80;;;;;;5084487;28;19996;-58
2023/02/13 07:29:42;;;;;;;;;;;12.60;57.80;;;;;;5086911;28;20071;-61
2023/02/13 07:32:09;;;;;;;28.73;3.60;;;12.60;57.90;;;;;;5086666;28;20001;-61
2023/02/13 07:34:35;;;;;;;16.48;3.50;;;12.60;57.40;;;;;;5086971;28;20423;-60
2023/02/13 07:37:01;;;;;;;;;;;12.70;57.60;;;;;;5084337;28;20117;-63
2023/02/13 07:39:27;;;;;;;18.98;3.50;;;12.70;57.80;;;;;;5084775;28;19959;-60
2023/02/13 07:41:54;;;;;;;15.73;3.45;;;12.60;68.10;;;;;;5084016;28;20070;-60
2023/02/13 07:44:21;;;;;;;15.15;3.70;;;12.70;57.70;;;;;;5085908;28;20078;-61
2023/02/13 07:46:47;;;;;;;;;;;12.70;57.50;;;;;;5088160;28;20508;-59
2023/02/13 07:49:13;;;;;;;14.02;3.97;;;12.70;57.00;;;;;;5086441;28;19969;-60
2023/02/13 07:51:39;;;;;;;;;;;12.60;57.50;;;;;;5088394;28;20086;-52
2023/02/13 07:54:05;;;;;;;16.52;3.38;;;12.60;57.50;;;;;;5087271;28;19960;-59
2023/02/13 07:56:31;;;;;;;;;;;12.60;58.40;;;;;;5086579;28;20075;-58
2023/02/13 07:58:58;;;;;;;11.73;2.83;;;12.60;72.80;;;;;;5090484;28;19964;-60
2023/02/13 08:01:24;;;;;;;;;;;12.50;58.80;;;;;;5091453;28;20070;-56
2023/02/13 08:03:51;;;;;;;15.75;2.75;;;12.50;58.70;;;;;;5091523;28;19974;-59
2023/02/13 08:06:19;;;;;;;16.20;3.08;;;12.70;77.20;;;;;;5089380;28;20079;-59
2023/02/13 08:08:46;;;;;;;10.73;2.95;;;12.60;59.00;;;;;;5087251;28;20154;-56
2023/02/13 08:14:14;;;;;;;13.88;2.92;;;12.80;70.30;;;;;;5089286;28;20441;-59
2023/02/13 08:16:40;;;;;;;;;;;12.60;58.30;;;;;;5089439;28;20070;-56
2023/02/13 08:19:07;;;;;;;9.75;2.88;;;12.80;77.50;;;;;;5090188;28;20343;-61
2023/02/13 08:21:34;;;;;;;;;;;12.60;59.10;;;;;;5090394;28;20070;-60
2023/02/13 08:24:00;;;;;;;15.55;4.32;;;12.60;57.80;;;;;;5089895;28;20385;-54
2023/02/13 08:26:27;;;;;;;30.27;6.25;;;;;;;;;;5089968;28;20073;-58
2023/02/13 08:28:53;;;;;;;20.98;6.10;;;12.50;57.70;;;;;;5093008;28;20075;-57
2023/02/13 08:31:19;;;;;;;;;;;12.50;58.40;;;;;;5090465;28;20475;-59
2023/02/13 08:33:45;;;;;;;16.17;5.90;;;12.50;59.30;;;;;;5089454;28;20003;-59
2023/02/13 08:36:11;;;;;;;;;;;12.50;59.50;;;;;;5091810;28;20456;-61
2023/02/13 08:38:38;;;;;;;19.95;5.57;;;12.50;60.10;;;;;;5090269;28;19959;-63
2023/02/13 08:41:04;;;;;;;19.73;6.47;;;12.50;60.40;;;;;;5090637;28;20522;-60
2023/02/13 08:43:31;;;;;;;13.98;4.55;;;12.40;60.90;;;;;;5090286;28;20078;-59
2023/02/13 08:45:58;;;;;;;;;;;12.40;62.00;;;;;;5089841;28;20088;-58
2023/02/13 08:48:25;;;;;;;14.05;3.20;;;12.40;61.70;;;;;;5090221;28;19963;-59
2023/02/13 08:50:52;;;;;;;9.55;3.20;;;12.30;62.20;;;;;;5089451;28;20086;-61
2023/02/13 08:53:18;;;;;;;;;;;12.30;62.50;;;;;;5089282;28;20066;-57
2023/02/13 08:55:52;;;;;;;21.17;4.25;;;12.40;62.90;;;;;;5091465;28;19967;-57
2023/02/13 08:58:18;;;;;;;18.63;3.58;;;12.40;63.00;;;;;;5090125;28;20092;-62
2023/02/13 09:00:44;;;;;;;;;;;12.30;63.00;;;;;;5089744;28;20069;-58
2023/02/13 09:03:11;;;;;;;26.83;4.88;;;12.40;62.70;;;;;;5089935;28;19985;-58
2023/02/13 09:05:37;;;;;;;;;;;12.30;63.00;;;;;;5089400;28;20126;-56
2023/02/13 09:08:03;;;;;;;21.83;4.07;;;12.20;63.30;;;;;;5089598;28;20027;-58
2023/02/13 09:10:31;;;;;;;8.27;2.88;;;12.10;63.40;;;;;;5089533;28;20071;-58
2023/02/13 09:12:57;;;;;;;6.22;2.60;;;12.20;63.90;;;;;;5090318;28;20066;-57
2023/02/13 09:15:24;;;;;;;12.55;2.70;;;12.20;64.30;;;;;;5088039;28;20119;-57
2023/02/13 09:17:50;;;;;;;;;;;12.20;64.20;;;;;;5089925;28;20078;-60
2023/02/13 09:20:16;;;;;;;12.95;2.13;;;12.30;64.10;;;;;;5090227;28;20040;-62
2023/02/13 09:22:42;;;;;;;;;;;12.30;64.10;;;;;;5089240;28;20154;-55
2023/02/13 09:25:09;;;;;;;6.55;2.10;;;12.70;70.80;;;;;;5089854;28;20515;-57
2023/02/13 09:27:37;;;;;;;5.60;1.83;;;12.30;64.70;;;;;;5088119;28;20110;-56
2023/02/13 09:30:06;;;;;;;5.72;1.67;;;12.20;64.70;;;;;;5088026;28;20102;-56
2023/02/13 09:32:33;;;;;;;7.03;1.77;;;12.40;72.70;;;;;;5089294;28;20118;-56
2023/02/13 09:34:59;;;;;;;5.95;2.08;;;12.00;83.40;;;;;;5088865;28;20105;-60
2023/02/13 09:37:26;;;;;;;;;;;12.20;65.10;;;;;;5090788;28;20146;-58
2023/02/13 09:39:52;;;;;;;4.40;1.70;;;13.30;93.60;;;;;;5090261;28;19977;-60
2023/02/13 09:42:28;;;;;;;7.30;1.58;;;12.10;64.20;;;;;;5088497;28;20074;-58
2023/02/13 09:45:02;;;;;;;4.03;1.23;;;12.20;65.00;;;;;;5088857;28;20088;-61
2023/02/13 09:47:41;;;;;;;8.60;1.65;;;12.10;65.00;;;;;;5090201;28;20436;-56
2023/02/13 09:50:16;;;;;;;3.90;1.23;;;12.20;65.30;;;;;;5089990;28;20431;-60
2023/02/13 09:52:44;;;;;;;9.20;1.95;;;12.30;64.90;;;;;;5089124;28;20074;-59
2023/02/13 09:55:36;;;;;;;8.82;1.67;;;12.30;65.10;;;;;;5090361;28;20086;-57
2023/02/13 09:58:05;;;;;;;9.10;1.67;;;12.40;64.70;;;;;;5075612;28;20120;-58
2023/02/13 10:00:39;;;;;;;5.82;1.73;;;12.40;64.70;;;;;;5088296;28;20088;-58
2023/02/13 10:03:25;;;;;;;9.40;1.95;;;12.40;64.40;;;;;;5086677;28;20087;-59
2023/02/13 10:06:30;;;;;;;5.63;1.60;;;12.30;63.30;;;;;;5087351;28;20553;-55
2023/02/13 10:09:32;;;;;;;5.90;1.83;;;12.30;64.50;;;;;;5089992;28;20089;-59
2023/02/13 10:12:13;;;;;;;4.55;2.00;;;12.30;64.80;;;;;;5052072;28;20081;-59
2023/02/13 10:15:11;;;;;;;6.68;1.90;;;12.20;77.90;;;;;;5081830;28;20105;-58
2023/02/13 10:17:39;;;;;;;;;;;12.40;64.30;;;;;;5088921;28;20078;-58
2023/02/13 10:20:21;;;;;;;6.90;2.20;;;12.50;64.60;;;;;;5086818;28;20457;-57
2023/02/13 10:23:11;;;;;;;4.25;2.17;;;12.50;64.40;;;;;;5084145;28;20080;-60
2023/02/13 10:25:56;;;;;;;9.75;1.80;;;12.50;64.60;;;;;;5089539;28;20178;-56
2023/02/13 10:28:35;;;;;;;10.63;2.40;;;12.40;64.80;;;;;;5087665;28;20082;-54
2023/02/13 10:31:09;;;;;;;8.13;1.88;;;12.50;73.00;;;;;;5087692;28;20072;-61
2023/02/13 10:33:46;;;;;;;9.05;2.05;;;12.20;65.60;;;;;;5088564;28;20077;-58
2023/02/13 10:36:20;;;;;;;6.05;2.05;;;12.20;65.90;;;;;;5086849;28;20090;-65
2023/02/13 10:39:00;;;;;;;6.18;1.73;;;12.30;85.00;;;;;;5088739;28;20074;-57
2023/02/13 10:41:41;;;;;;;9.48;2.83;;;12.30;65.80;;;;;;5088719;28;20192;-59
2023/02/13 10:44:32;;;;;;;6.38;2.45;;;12.30;65.60;;;;;;5088352;28;20219;-60
2023/02/13 10:47:26;;;;;;;5.53;2.22;;;12.40;65.50;;;;;;5088674;28;20075;-57
2023/02/13 10:50:20;;;;;;;6.70;2.28;;;12.40;65.20;;;;;;5088309;28;20085;-57
2023/02/13 10:53:05;;;;;;;14.60;3.05;;;12.50;64.90;;;;;;5085861;28;20495;-58
2023/02/13 10:55:40;;;;;;;8.20;2.50;;;12.50;64.80;;;;;;5088038;28;20086;-60
2023/02/13 10:58:16;;;;;;;23.15;7.72;;;12.50;64.80;;;;;;5085826;28;20070;-60
2023/02/13 11:00:48;;;;;;;36.10;13.18;;;12.40;64.90;;;;;;5088952;28;20073;-58
2023/02/13 11:03:24;;;;;;;40.90;11.48;;;12.30;65.30;;;;;;5088150;28;20689;-56
2023/02/13 11:05:51;;;;;;;23.38;9.38;;;12.20;65.60;;;;;;5085658;28;20113;-57
2023/02/13 11:08:20;;;;;;;28.55;8.73;;;12.20;66.30;;;;;;5085314;28;20133;-61
2023/02/13 11:10:47;;;;;;;31.10;9.00;;;12.10;67.10;;;;;;5086649;28;20073;-59
2023/02/13 11:13:18;;;;;;;36.03;8.70;;;12.20;67.90;;;;;;5088061;28;20459;-58
2023/02/13 11:15:57;;;;;;;26.30;7.95;;;12.20;68.60;;;;;;5086999;28;20558;-59
2023/02/13 11:18:27;;;;;;;23.48;7.43;;;12.20;68.90;;;;;;5086887;28;20085;-60
2023/02/13 11:21:13;;;;;;;18.48;6.97;;;12.30;85.30;;;;;;5086669;28;20513;-58
2023/02/13 11:23:51;;;;;;;14.30;6.63;;;12.20;70.20;;;;;;5084899;28;20158;-59
2023/02/13 11:26:22;;;;;;;16.33;7.20;;;12.10;71.10;;;;;;5090032;28;20370;-58
2023/02/13 11:28:54;;;;;;;25.13;7.00;;;11.90;73.50;;;;;;5086220;28;20063;-58
2023/02/13 11:31:28;;;;;;;19.38;7.50;;;12.10;73.30;;;;;;5088023;28;20074;-58
2023/02/13 11:33:55;;;;;;;18.95;8.00;;;12.10;90.30;;;;;;5091552;28;20506;-60
2023/02/13 11:36:32;;;;;;;28.27;8.90;;;11.90;71.70;;;;;;5089599;28;20521;-58
2023/02/13 11:39:04;;;;;;;21.67;7.47;;;12.00;71.30;;;;;;5090927;28;20069;-55
2023/02/13 11:41:39;;;;;;;16.63;8.30;;;12.00;71.90;;;;;;5090558;28;20069;-61
2023/02/13 11:44:18;;;;;;;19.75;7.20;;;12.10;71.00;;;;;;5090924;28;20518;-56
2023/02/13 11:46:55;;;;;;;16.63;7.50;;;12.10;69.80;;;;;;5093582;28;20136;-58
2023/02/13 11:49:22;;;;;;;27.90;7.60;;;12.20;75.10;;;;;;5091189;28;20169;-62
2023/02/13 11:51:59;;;;;;;18.27;7.57;;;12.10;68.50;;;;;;5091378;28;20070;-58
2023/02/13 11:54:54;;;;;;;19.30;7.45;;;12.20;80.10;;;;;;5089998;28;20499;-56
2023/02/13 11:57:23;;;;;;;23.88;7.63;;;12.70;85.90;;;;;;5091365;28;20649;-60
2023/02/13 11:59:52;;;;;;;25.48;8.07;;;12.20;82.00;;;;;;5092030;28;20121;-58
2023/02/13 12:02:28;;;;;;;21.55;7.75;;;12.00;80.80;;;;;;5090830;28;20071;-60
2023/02/13 12:05:15;;;;;;;21.40;9.15;;;12.10;68.70;;;;;;5091049;28;20194;-58
2023/02/13 12:07:43;;;;;;;20.77;9.07;;;12.10;69.00;;;;;;5089280;28;20066;-54
2023/02/13 12:10:18;;;;;;;23.83;9.32;;;12.60;80.10;;;;;;5089077;28;20066;-54
2023/02/13 12:12:54;;;;;;;23.92;8.93;;;12.10;68.70;;;;;;5089998;28;20074;-58
2023/02/13 12:15:28;;;;;;;31.48;10.00;;;12.00;68.20;;;;;;5088620;28;20154;-56
2023/02/13 12:18:08;;;;;;;27.65;9.25;;;12.00;68.20;;;;;;5090468;28;20079;-56
2023/02/13 12:20:51;;;;;;;25.65;9.05;;;12.00;74.30;;;;;;5091160;28;20091;-56
2023/02/13 12:23:48;;;;;;;26.33;10.20;;;11.90;69.00;;;;;;5090062;28;20097;-58
2023/02/13 12:26:24;;;;;;;22.38;8.60;;;11.60;86.20;;;;;;5091243;28;20092;-58
2023/02/13 12:29:18;;;;;;;19.80;8.23;;;12.30;79.70;;;;;;5092960;28;20529;-58
2023/02/13 12:32:16;;;;;;;23.80;8.00;;;11.80;69.90;;;;;;5089249;28;20591;-59
2023/02/13 12:35:01;;;;;;;16.33;7.85;;;11.90;69.40;;;;;;5089837;28;20152;-60
2023/02/13 12:37:50;;;;;;;21.15;8.00;;;11.90;70.30;;;;;;5089469;28;20084;-58
2023/02/13 12:40:49;;;;;;;24.05;8.02;;;11.80;70.00;;;;;;5089561;28;20523;-56
2023/02/13 12:43:42;;;;;;;20.30;6.85;;;11.80;69.70;;;;;;5089076;28;20546;-61
2023/02/13 12:46:28;;;;;;;18.58;6.30;;;11.80;69.30;;;;;;5090499;28;20659;-61
2023/02/13 12:49:02;;;;;;;15.00;5.60;;;11.70;69.60;;;;;;5089388;28;20530;-56
2023/02/13 12:51:47;;;;;;;11.60;5.15;;;11.50;70.40;;;;;;5090167;28;20415;-61
2023/02/13 12:54:39;;;;;;;11.43;4.88;;;11.50;70.80;;;;;;5089457;28;20473;-57
2023/02/13 12:57:26;;;;;;;19.20;4.70;;;11.50;71.40;;;;;;5090112;28;20067;-59
2023/02/13 13:00:22;;;;;;;14.07;4.00;;;11.30;71.10;;;;;;5088689;28;20090;-60
2023/02/13 13:03:14;;;;;;;14.38;4.82;;;11.30;71.50;;;;;;5074278;28;20144;-62
2023/02/13 13:06:11;;;;;;;13.35;4.30;;;12.00;88.20;;;;;;5091376;28;20113;-64
2023/02/13 13:09:11;;;;;;;12.63;4.80;;;11.20;71.80;;;;;;5087001;28;20071;-60
2023/02/13 13:12:02;;;;;;;16.83;4.18;;;11.20;71.30;;;;;;5089742;28;20117;-59
2023/02/13 13:14:38;;;;;;;13.38;4.25;;;11.20;71.90;;;;;;5089058;28;20067;-63
2023/02/13 13:17:25;;;;;;;13.32;4.47;;;11.30;79.70;;;;;;5089215;28;20077;-62
2023/02/13 13:20:04;;;;;;;9.75;4.07;;;10.90;73.40;;;;;;5088635;28;20550;-59
2023/02/13 13:22:36;;;;;;;9.38;3.60;;;10.90;74.80;;;;;;5088213;28;20078;-60
2023/02/13 13:25:10;;;;;;;13.45;4.25;;;10.50;90.70;;;;;;5086703;28;20169;-59
2023/02/13 13:27:46;;;;;;;13.38;4.30;;;10.90;73.60;;;;;;5090139;28;20082;-58
2023/02/13 13:30:29;;;;;;;11.68;4.05;;;11.00;73.50;;;;;;5090048;28;20116;-53
2023/02/13 13:33:03;;;;;;;25.65;5.20;;;11.00;73.60;;;;;;5088921;28;20086;-60
2023/02/13 13:35:31;;;;;;;24.95;6.00;;;11.00;73.50;;;;;;5090215;28;20116;-57
2023/02/13 13:38:05;;;;;;;23.70;6.30;;;11.00;73.60;;;;;;5089597;28;20098;-57
2023/02/13 13:40:44;;;;;;;17.02;5.55;;;11.10;90.20;;;;;;5087503;28;20079;-55
2023/02/13 13:43:32;;;;;;;21.23;5.82;;;10.70;74.40;;;;;;5086692;28;20089;-59
2023/02/13 13:46:39;;;;;;;19.95;5.45;;;10.50;87.10;;;;;;5088384;28;20083;-58
2023/02/13 13:49:23;;;;;;;13.32;5.35;;;10.50;75.00;;;;;;5030397;28;20565;-63
2023/02/13 13:51:50;;;;;;;17.75;5.05;;;9.80;79.60;;;;;;5084044;28;20115;-63
2023/02/13 13:54:19;;;;;;;13.70;4.95;;;10.30;76.00;;;;;;5088741;28;20519;-61
2023/02/13 13:57:00;;;;;;;15.60;5.05;;;10.30;77.00;;;;;;5089866;28;20098;-59
2023/02/13 13:59:33;;;;;;;18.77;4.65;;;10.50;93.00;;;;;;5089336;28;20062;-59
2023/02/13 14:02:17;;;;;;;17.00;4.55;;;9.60;90.10;;;;;;5087675;28;20063;-54